Latest Weather Observations for Amberley

IDQ60801

Issued at 7:02 pm EST Saturday 16 December 2017 (issued every 30 minutes, with the page automatically refreshed every 10 minutes)

About weather observations | Map of weather stations | Latest weather observations for QLD | Other Formats
Station Details ID: 040004 Name: AMBERLEY AMO Lat: -27.63 Lon: 152.71 Height: 24.2 m
Data from the previous 72 hours. | See also: Recent months at Amberley
Date/Time
EST
Temp
°C
App
Temp
°C
Dew
Point
°C
Rel
Hum
%
Delta-T
°C
Wind Press
QNH
hPa
Press
MSL
hPa
Rain since
9am
mm
Dir  Spd
km/h
Gust
km/h
Spd
kts
Gust
kts
16/07:00pm 25.4 23.8 19.3 69 3.9 ENE 26 33 14 18 1014.2 1014.1 0.0
16/06:30pm 26.1 23.9 19.6 67 4.2 ENE 30 37 16 20 1013.6 1013.5 0.0
16/06:00pm 26.9 24.7 19.5 64 4.8 NE 30 35 16 19 1013.1 1013.0 0.0
16/05:30pm 27.7 25.6 19.0 59 5.6 NE 28 37 15 20 1012.8 1012.7 0.0
16/05:00pm 28.2 26.2 19.1 57 5.9 NE 28 35 15 19 1012.4 1012.3 0.0
16/04:30pm 28.1 27.1 18.8 57 6.0 NE 22 30 12 16 1012.4 1012.3 0.0
16/04:00pm 28.9 26.7 18.8 54 6.5 NE 28 35 15 19 1012.3 1012.2 0.0
16/03:30pm 30.2 28.9 19.0 51 7.3 NE 24 33 13 18 1012.4 1012.3 0.0
16/03:00pm 30.3 28.5 18.7 50 7.5 ENE 26 37 14 20 1012.6 1012.5 0.0
16/02:30pm 30.8 29.0 17.8 45 8.3 ENE 24 32 13 17 1012.8 1012.7 0.0
16/02:00pm 31.4 31.0 17.2 42 9.0 NE 15 26 8 14 1013.1 1013.0 0.0
16/01:30pm 30.9 30.7 16.8 42 8.9 E 13 26 7 14 1013.4 1013.3 0.0
16/01:00pm 31.0 31.0 17.1 43 8.8 NNE 13 20 7 11 1013.8 1013.7 0.0
16/12:30pm 30.7 30.9 17.7 45 8.3 NNE 13 22 7 12 1014.4 1014.3 0.0
16/12:00pm 30.1 31.0 18.3 49 7.6 NNE 11 20 6 11 1014.9 1014.8 0.0
16/11:30am 29.8 30.3 18.4 50 7.3 ENE 13 22 7 12 1015.3 1015.2 0.0
16/11:00am 28.7 29.4 18.0 52 6.8 NNE 11 19 6 10 1015.7 1015.6 0.0
16/10:30am 28.6 29.0 19.0 56 6.2 NE 15 20 8 11 1016.0 1015.9 0.0
16/10:00am 27.4 28.5 19.7 63 5.0 NNE 13 17 7 9 1016.3 1016.2 0.0
16/09:30am 27.2 29.9 19.5 62 5.0 ENE 4 11 2 6 1016.4 1016.3 0.0
16/09:00am 26.3 29.4 19.5 66 4.4 NNW 2 11 1 6 1016.4 1016.3 0.2
16/08:30am 26.1 27.7 19.9 68 4.0 ENE 11 13 6 7 1016.5 1016.4 0.2
16/08:10am 26.5 28.6 20.1 68 4.2 ENE 9 13 5 7 1016.6 1016.5 0.2
16/08:00am 25.9 28.2 20.7 73 3.4 ENE 9 13 5 7 1016.6 1016.5 0.0
16/07:45am 25.6 29.3 21.5 78 2.7 ENE 4 9 2 5 1016.6 1016.5 0.0
16/07:30am 25.0 29.3 21.2 79 2.5 CALM 0 7 0 4 1016.4 1016.3 0.0
16/07:00am 24.5 27.6 21.0 81 2.3 SW 6 9 3 5 1016.2 1016.1 0.0
16/06:30am 22.5 25.3 20.8 90 1.1 SSW 7 9 4 5 1016.0 1015.9 0.0
16/06:00am 21.6 24.8 20.4 93 0.8 SW 4 7 2 4 1015.6 1015.5 0.0
16/05:59am 21.5 24.6 20.3 93 0.8 SW 4 7 2 4 1015.6 1015.5 0.0
16/05:41am 20.9 24.3 20.1 95 0.5 WSW 2 9 1 5 1015.4 1015.3 0.0
16/05:30am 20.6 24.2 19.8 95 0.5 CALM 0 0 0 0 1015.2 1015.1 0.0
16/05:00am 19.4 22.6 18.8 96 0.4 CALM 0 0 0 0 1014.8 1014.7 0.0
16/04:30am 18.9 20.7 18.3 96 0.4 E 6 9 3 5 1014.4 1014.3 0.0
16/04:00am 18.5 21.3 18.0 97 0.3 CALM 0 0 0 0 1014.1 1014.0 0.0
16/03:30am 18.6 21.4 17.9 96 0.4 CALM 0 0 0 0 1014.2 1014.1 0.0
16/03:00am 18.5 21.2 17.8 96 0.4 CALM 0 2 0 1 1014.1 1014.0 0.0
16/02:30am 19.0 21.9 18.2 95 0.5 CALM 0 0 0 0 1014.1 1014.0 0.0
16/02:00am 19.1 22.1 18.5 96 0.4 CALM 0 0 0 0 1014.1 1014.0 0.0
16/01:30am 19.5 22.6 18.7 95 0.5 CALM 0 0 0 0 1014.2 1014.1 0.0
16/01:00am 18.9 21.8 18.1 95 0.5 CALM 0 0 0 0 1014.3 1014.2 0.0
16/12:30am 20.1 23.4 19.0 93 0.7 CALM 0 0 0 0 1014.2 1014.1 0.0
16/12:00am 20.9 24.5 19.8 93 0.7 CALM 0 0 0 0 1014.3 1014.2 0.0
 
Date/Time
EST
Temp
°C
App
Temp
°C
Dew
Point
°C
Rel
Hum
%
Delta-T
°C
Wind Press
QNH
hPa
Press
MSL
hPa
Rain since
9am
mm
Dir  Spd
km/h
Gust
km/h
Spd
kts
Gust
kts
15/11:30pm 20.9 23.2 19.5 92 0.9 SE 6 7 3 4 1014.5 1014.4 0.0
15/11:00pm 21.6 23.6 19.9 90 1.1 ESE 9 11 5 6 1014.5 1014.4 0.0
15/10:30pm 22.5 25.0 20.2 87 1.5 SE 7 9 4 5 1014.7 1014.6 0.0
15/10:00pm 23.0 25.1 20.1 84 1.9 E 9 11 5 6 1014.6 1014.5 0.0
15/09:30pm 23.4 25.0 20.0 81 2.2 E 11 13 6 7 1014.5 1014.4 0.0
15/09:00pm 23.8 24.6 19.8 78 2.6 ENE 15 19 8 10 1014.2 1014.1 0.0
15/08:30pm 24.1 25.1 19.4 75 3.0 ENE 13 19 7 10 1013.8 1013.7 0.0
15/08:00pm 24.2 24.5 19.5 75 3.0 NE 17 26 9 14 1013.4 1013.3 0.0
15/07:30pm 24.6 24.4 19.3 72 3.4 ENE 19 28 10 15 1012.9 1012.8 0.0
15/07:00pm 25.1 24.5 18.8 68 4.0 NE 20 26 11 14 1012.4 1012.3 0.0
15/06:30pm 26.0 23.9 18.1 61 5.0 NE 26 33 14 18 1011.9 1011.8 0.0
15/06:00pm 27.1 25.0 17.2 54 6.2 NE 24 33 13 18 1011.4 1011.3 0.0
15/05:30pm 28.1 25.4 16.7 50 7.1 NE 26 33 14 18 1010.9 1010.8 0.0
15/05:00pm 28.7 25.5 16.3 47 7.7 ENE 28 35 15 19 1010.5 1010.4 0.0
15/04:30pm 29.5 27.0 17.0 47 7.9 NE 26 37 14 20 1010.3 1010.2 0.0
15/04:00pm 29.8 27.0 16.4 44 8.4 ENE 26 35 14 19 1010.1 1010.0 0.0
15/03:30pm 29.9 27.1 16.3 43 8.5 NE 26 32 14 17 1010.1 1010.0 0.0
15/03:00pm 30.3 28.0 15.8 41 9.0 NE 22 32 12 17 1010.1 1010.0 0.0
15/02:30pm 30.5 28.7 16.1 41 9.0 NE 20 30 11 16 1010.2 1010.1 0.0
15/02:00pm 31.0 30.4 16.7 42 9.0 ENE 15 26 8 14 1010.4 1010.3 0.0
15/01:30pm 30.2 29.9 15.5 41 9.1 NNE 11 20 6 11 1010.7 1010.6 0.0
15/01:00pm 30.2 29.9 15.5 41 9.1 ENE 11 20 6 11 1011.2 1011.1 0.0
15/12:30pm 29.8 29.1 15.3 41 8.9 NNE 13 24 7 13 1011.7 1011.6 0.0
15/12:00pm 29.7 31.1 17.8 48 7.6 WNW 7 19 4 10 1012.0 1011.9 0.0
15/11:30am 29.4 30.5 17.2 47 7.7 SE 7 11 4 6 1012.2 1012.1 0.0
15/11:00am 28.8 29.2 17.2 49 7.3 E 11 15 6 8 1012.6 1012.5 0.0
15/10:30am 27.6 28.2 17.6 54 6.3 NNE 11 15 6 8 1013.1 1013.0 0.0
15/10:00am 27.4 28.9 18.1 57 5.9 SW 7 9 4 5 1013.4 1013.3 0.0
15/09:30am 26.7 28.2 18.0 59 5.5 E 7 13 4 7 1013.5 1013.4 0.0
15/09:00am 25.8 27.3 18.9 65 4.4 ENE 9 13 5 7 1013.8 1013.7 0.0
15/08:30am 25.6 28.1 19.0 67 4.2 S 4 13 2 7 1013.9 1013.8 0.0
15/08:00am 24.5 25.9 18.7 70 3.7 SSW 9 13 5 7 1013.9 1013.8 0.0
15/07:30am 23.4 25.9 19.0 76 2.8 SW 4 9 2 5 1014.0 1013.9 0.0
15/07:00am 22.5 25.8 19.0 80 2.2 CALM 0 6 0 3 1013.8 1013.7 0.0
15/06:30am 20.5 23.6 18.7 89 1.1 CALM 0 0 0 0 1013.7 1013.6 0.0
15/06:00am 20.2 23.4 18.8 92 0.9 CALM 0 0 0 0 1013.4 1013.3 0.0
15/05:30am 18.4 21.1 17.7 96 0.4 CALM 0 0 0 0 1013.1 1013.0 0.0
15/05:00am 17.7 20.2 17.2 97 0.3 CALM 0 0 0 0 1012.7 1012.6 0.0
15/04:30am 17.6 19.9 16.8 95 0.5 CALM 0 0 0 0 1012.3 1012.2 0.0
15/04:00am 17.2 19.4 16.5 96 0.4 CALM 0 0 0 0 1012.0 1011.9 0.0
15/03:30am 17.7 20.1 17.0 96 0.4 CALM 0 0 0 0 1011.7 1011.6 0.0
15/03:00am 18.2 20.8 17.5 96 0.4 CALM 0 0 0 0 1011.8 1011.7 0.0
15/02:30am 18.2 20.4 17.4 95 0.5 SE 2 6 1 3 1011.9 1011.8 0.0
15/02:00am 18.2 20.7 17.2 94 0.6 CALM 0 0 0 0 1011.8 1011.7 0.0
15/01:30am 18.3 20.8 17.3 94 0.6 CALM 0 0 0 0 1011.7 1011.6 0.0
15/01:00am 18.6 20.9 17.6 94 0.6 W 2 6 1 3 1011.9 1011.8 0.0
15/12:30am 19.0 21.8 17.9 93 0.7 CALM 0 0 0 0 1012.1 1012.0 0.0
15/12:00am 19.2 20.8 17.9 92 0.8 ESE 6 7 3 4 1012.3 1012.2 0.0
 
Date/Time
EST
Temp
°C
App
Temp
°C
Dew
Point
°C
Rel
Hum
%
Delta-T
°C
Wind Press
QNH
hPa
Press
MSL
hPa
Rain since
9am
mm
Dir  Spd
km/h
Gust
km/h
Spd
kts
Gust
kts
14/11:30pm 20.9 22.2 18.5 86 1.5 E 9 11 5 6 1012.5 1012.4 0.0
14/11:00pm 21.4 23.1 18.5 83 1.8 ENE 7 9 4 5 1012.6 1012.5 0.0
14/10:30pm 22.0 23.3 18.5 80 2.2 ENE 9 13 5 7 1012.6 1012.5 0.0
14/10:00pm 22.6 23.2 18.5 77 2.6 NE 13 15 7 8 1012.7 1012.6 0.0
14/09:30pm 22.9 23.5 18.5 76 2.8 ENE 13 19 7 10 1012.6 1012.5 0.0
14/09:00pm 23.2 23.3 18.4 74 3.0 ENE 15 20 8 11 1012.4 1012.3 0.0
14/08:30pm 23.5 23.3 18.6 74 3.1 ENE 17 24 9 13 1012.1 1012.0 0.0
14/08:00pm 23.8 23.5 18.2 71 3.5 ENE 17 20 9 11 1012.0 1011.9 0.0
14/07:30pm 24.1 23.6 17.9 68 3.9 ENE 17 24 9 13 1011.7 1011.6 0.0
14/07:00pm 24.8 23.1 17.2 62 4.7 NE 22 32 12 17 1011.1 1011.0 0.0
14/06:30pm 25.8 24.2 16.6 56 5.7 NE 20 30 11 16 1010.8 1010.7 0.0
14/06:00pm 26.8 24.8 16.5 53 6.4 NE 22 30 12 16 1010.4 1010.3 0.0
14/05:30pm 27.9 25.2 15.7 47 7.5 ENE 24 33 13 18 1010.2 1010.1 0.0
14/05:00pm 28.8 26.4 15.4 44 8.2 ENE 22 32 12 17 1009.9 1009.8 0.0
14/04:30pm 29.1 26.9 14.8 41 8.7 ENE 20 30 11 16 1009.7 1009.6 0.0
14/04:00pm 29.5 28.1 14.5 40 9.1 NNE 15 22 8 12 1009.6 1009.5 0.0
14/03:30pm 30.3 29.7 15.6 41 9.1 NE 13 19 7 10 1009.7 1009.6 0.0
14/03:00pm 29.8 28.8 14.5 39 9.3 NE 13 26 7 14 1009.8 1009.7 0.0
14/02:30pm 29.7 28.3 14.6 39 9.2 NE 15 24 8 13 1010.0 1009.9 0.0
14/02:00pm 29.6 29.2 15.1 41 8.9 NE 11 19 6 10 1010.4 1010.3 0.0
14/01:30pm 29.0 28.1 14.9 42 8.6 NE 13 24 7 13 1010.6 1010.5 0.0
14/01:00pm 29.1 29.2 15.4 43 8.4 ENE 9 20 5 11 1010.9 1010.8 0.0
14/12:30pm 28.5 26.6 15.2 44 8.1 NE 19 28 10 15 1011.3 1011.2 0.0
14/12:00pm 28.4 27.5 15.9 46 7.7 ESE 15 20 8 11 1011.6 1011.5 0.0
14/11:30am 27.3 27.3 15.3 48 7.3 SE 9 15 5 8 1012.1 1012.0 0.0
14/11:00am 27.7 27.2 15.8 48 7.3 E 13 17 7 9 1012.4 1012.3 0.0
14/10:30am 26.8 27.9 16.6 53 6.3 N 6 15 3 8 1012.9 1012.8 0.0
14/10:00am 26.8 27.1 16.1 52 6.6 NE 9 19 5 10 1013.0 1012.9 0.0
14/09:30am 26.2 26.8 15.9 53 6.3 ENE 7 11 4 6 1013.2 1013.1 0.0
14/09:00am 25.6 26.3 15.5 53 6.1 W 6 9 3 5 1013.5 1013.4 0.0
14/08:30am 25.0 25.7 15.6 56 5.7 ENE 6 11 3 6 1013.8 1013.7 0.0
14/08:00am 24.3 24.7 15.3 57 5.4 E 7 9 4 5 1013.9 1013.8 0.0
14/07:30am 23.5 26.1 17.5 69 3.7 CALM 0 7 0 4 1014.1 1014.0 0.0
14/07:00am 21.6 23.1 18.1 80 2.2 SSE 7 9 4 5 1014.0 1013.9 0.0
14/06:30am 20.2 22.6 17.9 87 1.4 S 2 7 1 4 1014.1 1014.0 0.0
14/06:00am 18.1 20.6 17.3 95 0.5 CALM 0 0 0 0 1013.8 1013.7 0.0
14/05:39am 16.8 18.9 16.3 97 0.3 CALM 0 0 0 0 1013.7 1013.6 0.0
14/05:30am 16.2 18.1 15.7 97 0.3 CALM 0 0 0 0 1013.7 1013.6 0.0
14/05:00am 16.0 17.9 15.7 98 0.2 CALM 0 0 0 0 1013.6 1013.5 0.0
14/04:58am 16.1 17.9 15.4 96 0.4 CALM 0 0 0 0 1013.6 1013.5 0.0
14/04:43am 16.3 18.2 15.8 97 0.3 CALM 0 0 0 0 1013.5 1013.4 0.0
14/04:30am 16.3 18.2 15.8 97 0.3 CALM 0 0 0 0 1013.4 1013.3 0.0
14/04:00am 16.9 19.1 16.4 97 0.3 CALM 0 0 0 0 1013.1 1013.0 0.0
14/03:33am 16.5 18.4 15.8 96 0.4 CALM 0 0 0 0 1013.1 1013.0 0.0
14/03:30am 16.3 18.2 15.8 97 0.3 CALM 0 0 0 0 1013.1 1013.0 0.0
14/03:00am 17.5 19.9 17.0 97 0.3 CALM 0 0 0 0 1013.0 1012.9 0.0
14/02:30am 17.8 20.3 17.3 97 0.3 CALM 0 0 0 0 1013.1 1013.0 0.0
14/02:00am 17.5 19.8 16.8 96 0.4 CALM 0 0 0 0 1013.2 1013.1 0.0
14/01:30am 18.3 19.4 17.1 93 0.7 S 7 7 4 4 1013.3 1013.2 0.0
14/01:00am 19.7 21.2 17.6 88 1.3 S 6 6 3 3 1013.6 1013.5 0.0
14/12:30am 20.2 21.6 17.8 86 1.5 S 7 7 4 4 1014.0 1013.9 0.0
14/12:00am 20.8 22.2 17.9 83 1.8 S 7 9 4 5 1014.3 1014.2 0.0
 
Date/Time
EST
Temp
°C
App
Temp
°C
Dew
Point
°C
Rel
Hum
%
Delta-T
°C
Wind Press
QNH
hPa
Press
MSL
hPa
Rain since
9am
mm
Dir  Spd
km/h
Gust
km/h
Spd
kts
Gust
kts
13/11:30pm 20.7 22.4 18.0 84 1.7 SSE 6 7 3 4 1014.7 1014.6 0.0
13/11:00pm 21.1 23.2 18.2 83 1.8 ESE 4 7 2 4 1014.8 1014.7 0.0
13/10:30pm 21.2 22.8 17.8 81 2.1 E 6 7 3 4 1015.0 1014.9 0.0
13/10:00pm 21.6 22.7 17.9 79 2.3 E 9 11 5 6 1015.0 1014.9 0.0
13/09:30pm 22.1 22.9 17.4 74 2.9 E 9 13 5 7 1014.9 1014.8 0.0
13/09:00pm 22.7 23.1 17.2 71 3.4 E 11 15 6 8 1014.7 1014.6 0.0
13/08:30pm 23.0 23.0 17.2 70 3.6 ENE 13 19 7 10 1014.6 1014.5 0.0
13/08:00pm 23.6 22.2 16.6 65 4.3 ENE 19 26 10 14 1014.6 1014.5 0.0
13/07:30pm 24.2 22.2 16.5 62 4.7 ENE 22 28 12 15 1014.3 1014.2 0.0

Other Formats:

Comma delimited format used in spreadsheet applications
http://www.bom.gov.au/fwo/IDQ60801/IDQ60801.94568.axf

JavaScript Object Notation format (JSON) in row-major order
http://www.bom.gov.au/fwo/IDQ60801/IDQ60801.94568.json